createdAt,value
2023-01-28T00:00:22.703Z,91.27
2023-01-28T00:01:23.960Z,90.93
2023-01-28T00:02:25.222Z,90.83
2023-01-28T00:03:26.578Z,90.80
2023-01-28T00:04:27.902Z,91.13
2023-01-28T00:05:29.084Z,91.69
2023-01-28T00:06:30.312Z,91.81
2023-01-28T00:07:31.515Z,92.00
2023-01-28T00:08:33.114Z,92.01
2023-01-28T00:09:34.337Z,92.12
2023-01-28T00:10:36.609Z,92.38
2023-01-28T00:11:38.033Z,91.75
2023-01-28T00:12:39.245Z,91.50
2023-01-28T00:13:40.811Z,91.87
2023-01-28T00:14:42.045Z,91.72
2023-01-28T00:15:43.329Z,91.78
2023-01-28T00:16:44.629Z,92.16
2023-01-28T00:17:45.862Z,91.64
2023-01-28T00:18:47.107Z,91.18
2023-01-28T00:19:48.298Z,91.46
2023-01-28T00:20:56.798Z,91.28
2023-01-28T00:21:58.043Z,91.87
2023-01-28T00:22:59.240Z,91.41
2023-01-28T00:24:00.505Z,90.97
2023-01-28T00:25:01.799Z,90.79
2023-01-28T00:26:04.724Z,90.57
2023-01-28T00:27:05.955Z,90.53
2023-01-28T00:28:07.248Z,90.72
2023-01-28T00:29:08.471Z,90.96
2023-01-28T00:30:11.173Z,91.54
2023-01-28T00:31:14.349Z,91.58
2023-01-28T00:32:15.735Z,90.97
2023-01-28T00:33:16.985Z,91.24
2023-01-28T00:34:18.195Z,91.78
2023-01-28T00:35:19.437Z,91.17
2023-01-28T00:36:21.625Z,91.20
2023-01-28T00:37:22.957Z,91.94
2023-01-28T00:38:24.183Z,91.51
2023-01-28T00:39:25.993Z,91.86
2023-01-28T00:40:27.342Z,91.55
2023-01-28T00:41:29.420Z,92.25
2023-01-28T00:42:32.568Z,91.71
2023-01-28T00:43:33.795Z,92.00
2023-01-28T00:44:34.996Z,91.97
2023-01-28T00:45:37.639Z,91.88
2023-01-28T00:46:38.912Z,92.23
2023-01-28T00:47:40.183Z,92.22
2023-01-28T00:48:42.234Z,91.98
2023-01-28T00:49:43.452Z,92.52
2023-01-28T00:50:44.715Z,92.00
2023-01-28T00:51:45.950Z,91.79
2023-01-28T00:52:50.007Z,91.76
2023-01-28T00:53:52.377Z,92.17
2023-01-28T00:54:53.605Z,92.49
2023-01-28T00:55:54.888Z,92.33
2023-01-28T00:56:56.087Z,91.98
2023-01-28T00:57:57.288Z,92.59
2023-01-28T00:58:58.583Z,92.24
2023-01-28T00:59:59.977Z,92.20
2023-01-28T01:01:16.285Z,92.77
2023-01-28T01:02:17.602Z,92.23
2023-01-28T01:03:20.403Z,92.34
2023-01-28T01:04:21.653Z,92.29
2023-01-28T01:05:22.866Z,92.75
2023-01-28T01:06:24.812Z,92.33
2023-01-28T01:07:30.369Z,93.44
2023-01-28T01:08:31.655Z,93.52
2023-01-28T01:09:33.026Z,93.12
2023-01-28T01:10:34.232Z,93.36
2023-01-28T01:11:35.499Z,93.79
2023-01-28T01:12:36.960Z,93.75
2023-01-28T01:13:38.359Z,94.00
2023-01-28T01:14:39.614Z,94.14
2023-01-28T01:15:42.063Z,93.86
2023-01-28T01:16:43.300Z,93.94
2023-01-28T01:17:45.758Z,93.08
2023-01-28T01:18:47.097Z,92.11
2023-01-28T01:19:48.444Z,92.88
2023-01-28T01:20:50.870Z,92.34
2023-01-28T01:21:53.007Z,92.01
2023-01-28T01:22:54.550Z,92.92
2023-01-28T01:23:55.897Z,92.66
2023-01-28T01:24:57.111Z,92.58
2023-01-28T01:25:58.332Z,93.21
2023-01-28T01:27:00.018Z,93.43
2023-01-28T01:28:02.825Z,93.74
2023-01-28T01:29:04.103Z,93.35
2023-01-28T01:30:05.643Z,93.64
2023-01-28T01:31:10.306Z,92.96
2023-01-28T01:32:11.542Z,93.20
2023-01-28T01:33:12.876Z,93.24
2023-01-28T01:34:14.135Z,93.07
2023-01-28T01:35:15.966Z,93.47
2023-01-28T01:36:18.270Z,92.91
2023-01-28T01:37:19.468Z,93.29
2023-01-28T01:38:20.736Z,93.57
2023-01-28T01:39:21.948Z,93.28
2023-01-28T01:40:23.196Z,93.55
2023-01-28T01:41:29.304Z,93.50
2023-01-28T01:42:31.265Z,94.10
2023-01-28T01:43:46.417Z,93.45
2023-01-28T01:44:50.488Z,93.60
2023-01-28T01:45:58.031Z,93.12
2023-01-28T01:46:59.471Z,93.44
2023-01-28T01:48:30.332Z,93.36
2023-01-28T01:49:31.697Z,93.56
2023-01-28T01:50:53.192Z,93.90
2023-01-28T01:51:58.507Z,94.12
2023-01-28T01:53:06.779Z,93.63
2023-01-28T01:54:08.152Z,93.29
2023-01-28T01:55:12.460Z,94.05
2023-01-28T01:56:16.720Z,94.11
2023-01-28T01:57:30.799Z,93.38
2023-01-28T01:58:35.124Z,93.50
2023-01-28T01:59:36.827Z,93.00
2023-01-28T02:00:38.824Z,93.16
2023-01-28T02:01:40.502Z,93.28
2023-01-28T02:02:45.674Z,93.46
2023-01-28T02:03:51.684Z,93.42
2023-01-28T02:04:52.888Z,93.56
2023-01-28T02:05:54.221Z,93.67
2023-01-28T02:06:55.774Z,93.81
2023-01-28T02:07:58.431Z,93.50
2023-01-28T02:08:59.763Z,93.88
2023-01-28T02:10:00.995Z,93.81
2023-01-28T02:11:04.132Z,93.60
2023-01-28T02:12:11.653Z,93.43
2023-01-28T02:13:14.626Z,94.11
2023-01-28T02:14:29.401Z,93.78
2023-01-28T02:15:32.078Z,93.97
2023-01-28T02:16:33.423Z,94.25
2023-01-28T02:17:35.882Z,93.84
2023-01-28T02:18:37.429Z,94.01
2023-01-28T02:19:48.164Z,94.52
2023-01-28T02:20:49.408Z,94.29
2023-01-28T02:22:04.621Z,93.92
2023-01-28T02:23:24.660Z,93.41
2023-01-28T02:24:42.334Z,93.20
2023-01-28T02:25:55.811Z,93.77
2023-01-28T02:27:02.827Z,94.22
2023-01-28T02:28:06.923Z,93.98
2023-01-28T02:29:11.166Z,94.10
2023-01-28T02:30:20.588Z,94.25
2023-01-28T02:31:24.607Z,94.56
2023-01-28T02:32:28.905Z,94.25
2023-01-28T02:33:41.035Z,94.17
2023-01-28T02:34:45.251Z,94.47
2023-01-28T02:35:52.289Z,94.58
2023-01-28T02:37:07.371Z,94.80
2023-01-28T02:38:12.107Z,94.57
2023-01-28T02:39:16.775Z,95.15
2023-01-28T02:40:29.661Z,94.81
2023-01-28T02:41:37.220Z,94.54
2023-01-28T02:42:39.551Z,94.78
2023-01-28T02:43:42.247Z,94.55
2023-01-28T02:44:43.528Z,94.22
2023-01-28T02:45:45.366Z,94.68
2023-01-28T02:46:47.697Z,94.38
2023-01-28T02:47:48.916Z,95.01
2023-01-28T02:48:50.234Z,95.15
2023-01-28T02:49:55.340Z,95.28
2023-01-28T02:51:09.910Z,95.64
2023-01-28T02:52:20.164Z,95.37
2023-01-28T02:53:30.746Z,95.48
2023-01-28T02:54:36.948Z,95.74
2023-01-28T02:55:38.251Z,95.77
2023-01-28T02:56:51.256Z,95.87
2023-01-28T02:58:12.765Z,95.83
2023-01-28T02:59:22.132Z,95.20
2023-01-28T03:00:34.161Z,95.69
2023-01-28T03:01:42.728Z,96.18
2023-01-28T03:03:07.272Z,96.28
2023-01-28T03:04:20.121Z,96.13
2023-01-28T03:05:24.972Z,96.54
2023-01-28T03:06:32.356Z,96.16
2023-01-28T03:07:35.603Z,96.65
2023-01-28T03:08:57.367Z,96.96
2023-01-28T03:10:00.702Z,96.74
2023-01-28T03:11:01.968Z,97.29
2023-01-28T03:12:06.062Z,96.74
2023-01-28T03:13:07.342Z,96.95
2023-01-28T03:14:11.470Z,97.89
2023-01-28T03:15:15.871Z,97.84
2023-01-28T03:16:17.463Z,97.37
2023-01-28T03:17:26.595Z,97.52
2023-01-28T03:18:28.047Z,97.72
2023-01-28T03:19:29.307Z,97.65
2023-01-28T03:20:35.394Z,97.30
2023-01-28T03:21:40.467Z,97.76
2023-01-28T03:22:43.495Z,98.15
2023-01-28T03:23:54.665Z,97.83
2023-01-28T03:24:56.327Z,97.85
2023-01-28T03:25:58.821Z,97.36
2023-01-28T03:27:18.038Z,97.59
2023-01-28T03:28:22.101Z,97.15
2023-01-28T03:29:23.816Z,97.36
2023-01-28T03:30:31.956Z,96.96
2023-01-28T03:31:37.332Z,97.22
2023-01-28T03:32:40.673Z,97.59
2023-01-28T03:33:42.801Z,97.72
2023-01-28T03:34:45.551Z,97.82
2023-01-28T03:35:48.444Z,97.70
2023-01-28T03:36:50.468Z,97.96
2023-01-28T03:38:08.104Z,97.28
2023-01-28T03:39:09.458Z,97.48
2023-01-28T03:40:11.115Z,98.10
2023-01-28T03:41:12.545Z,97.77
2023-01-28T03:42:15.049Z,98.48
2023-01-28T03:43:49.428Z,98.41
2023-01-28T03:44:50.890Z,98.64
2023-01-28T03:45:52.693Z,98.31
2023-01-28T03:46:54.909Z,98.43
2023-01-28T03:47:56.309Z,98.52
2023-01-28T03:48:57.607Z,98.22
2023-01-28T03:49:58.842Z,97.80
2023-01-28T03:51:01.276Z,98.56
2023-01-28T03:52:04.278Z,98.42
2023-01-28T03:53:05.527Z,98.10
2023-01-28T03:54:13.124Z,98.08
2023-01-28T03:55:14.995Z,97.85
2023-01-28T03:56:17.591Z,98.07
2023-01-28T03:57:20.486Z,98.90
2023-01-28T03:58:21.876Z,98.86
2023-01-28T03:59:23.199Z,99.12
2023-01-28T04:00:24.447Z,98.97
2023-01-28T04:01:25.812Z,98.76
2023-01-28T04:02:27.518Z,98.32
2023-01-28T04:03:28.931Z,98.01
2023-01-28T04:04:35.538Z,98.25
2023-01-28T04:05:36.748Z,98.87
2023-01-28T04:06:38.153Z,99.28
2023-01-28T04:07:59.332Z,99.11
2023-01-28T04:09:07.919Z,99.45
2023-01-28T04:10:30.798Z,99.33
2023-01-28T04:11:39.930Z,99.77
2023-01-28T04:12:42.705Z,100.00
2023-01-28T04:13:44.843Z,99.48
2023-01-28T04:14:48.299Z,100.00
2023-01-28T04:15:58.017Z,99.95
2023-01-28T04:17:00.622Z,99.89
2023-01-28T04:18:01.859Z,100.00
2023-01-28T04:19:04.678Z,100.00
2023-01-28T04:20:07.136Z,100.00
2023-01-28T04:21:08.394Z,100.00
2023-01-28T04:22:10.954Z,100.00
2023-01-28T04:23:13.507Z,100.00
2023-01-28T04:24:15.714Z,100.00
2023-01-28T04:25:17.506Z,100.00
2023-01-28T04:26:18.828Z,100.00
2023-01-28T04:27:20.403Z,100.00
2023-01-28T04:28:22.928Z,100.00
2023-01-28T04:29:24.539Z,100.00
2023-01-28T04:30:27.423Z,100.00
2023-01-28T04:31:57.968Z,100.00
2023-01-28T04:33:22.782Z,100.00
2023-01-28T04:34:32.778Z,100.00
2023-01-28T04:36:09.521Z,100.00
2023-01-28T04:37:29.426Z,100.00
2023-01-28T04:38:44.855Z,100.00
2023-01-28T04:40:04.776Z,100.00
2023-01-28T04:41:16.121Z,100.00
2023-01-28T04:42:17.591Z,100.00
2023-01-28T04:43:39.187Z,100.00
2023-01-28T04:45:04.362Z,100.00
2023-01-28T04:46:25.934Z,100.00
2023-01-28T04:47:36.351Z,100.00
2023-01-28T04:49:00.563Z,100.00
2023-01-28T04:50:13.504Z,100.00
2023-01-28T04:51:28.720Z,100.00
2023-01-28T04:52:50.276Z,100.00
2023-01-28T04:54:00.110Z,100.00
2023-01-28T04:55:05.090Z,100.00
2023-01-28T04:56:06.426Z,100.00
2023-01-28T04:57:09.469Z,100.00
2023-01-28T04:58:10.818Z,100.00
2023-01-28T04:59:12.411Z,100.00
2023-01-28T05:00:13.998Z,100.00
2023-01-28T05:01:15.323Z,100.00
2023-01-28T05:02:16.664Z,100.00
2023-01-28T05:03:19.483Z,100.00
2023-01-28T05:04:20.780Z,100.00
2023-01-28T05:05:22.101Z,100.00
2023-01-28T05:06:30.398Z,100.00
2023-01-28T05:07:35.321Z,100.00
2023-01-28T05:08:37.858Z,100.00
2023-01-28T05:09:39.131Z,100.00
2023-01-28T05:10:40.445Z,100.00
2023-01-28T05:11:42.013Z,100.00
2023-01-28T05:12:44.035Z,100.00
2023-01-28T05:13:46.107Z,100.00
2023-01-28T05:14:48.545Z,100.00
2023-01-28T05:15:53.866Z,100.00
2023-01-28T05:16:55.766Z,100.00
2023-01-28T05:17:57.001Z,100.00
2023-01-28T05:18:58.971Z,100.00
2023-01-28T05:20:07.123Z,100.00
2023-01-28T05:21:08.814Z,100.00
2023-01-28T05:22:12.230Z,100.00
2023-01-28T05:23:18.543Z,100.00
2023-01-28T05:24:29.293Z,100.00
2023-01-28T05:25:30.556Z,100.00
2023-01-28T05:26:31.960Z,100.00
2023-01-28T05:27:33.321Z,100.00
2023-01-28T05:28:34.595Z,100.00
2023-01-28T05:29:35.908Z,100.00
2023-01-28T05:30:37.830Z,100.00
2023-01-28T05:31:39.145Z,100.00
2023-01-28T05:32:40.416Z,100.00
2023-01-28T05:33:41.846Z,100.00
2023-01-28T05:34:45.714Z,100.00
2023-01-28T05:35:48.836Z,100.00
2023-01-28T05:36:51.457Z,100.00
2023-01-28T05:38:05.703Z,100.00
2023-01-28T05:39:07.059Z,100.00
2023-01-28T05:40:09.418Z,100.00
2023-01-28T05:41:11.806Z,100.00
2023-01-28T05:42:13.707Z,100.00
2023-01-28T05:43:19.259Z,100.00
2023-01-28T05:44:36.028Z,100.00
2023-01-28T05:45:50.128Z,100.00
2023-01-28T05:46:58.180Z,100.00
2023-01-28T05:48:18.101Z,100.00
2023-01-28T05:49:24.340Z,100.00
2023-01-28T05:50:46.814Z,100.00
2023-01-28T05:51:52.739Z,100.00
2023-01-28T05:52:56.116Z,100.00
2023-01-28T05:54:02.228Z,100.00
2023-01-28T05:55:03.641Z,100.00
2023-01-28T05:56:05.778Z,100.00
2023-01-28T05:57:07.972Z,100.00
2023-01-28T05:58:09.257Z,100.00
2023-01-28T05:59:11.652Z,100.00
2023-01-28T06:00:16.835Z,100.00
2023-01-28T06:01:19.388Z,100.00
2023-01-28T06:02:24.779Z,100.00
2023-01-28T06:03:29.533Z,100.00
2023-01-28T06:04:30.887Z,100.00
2023-01-28T06:05:33.227Z,100.00
2023-01-28T06:06:35.695Z,100.00
2023-01-28T06:07:39.683Z,100.00
2023-01-28T06:08:43.936Z,100.00
2023-01-28T06:09:46.494Z,100.00
2023-01-28T06:10:49.200Z,100.00
2023-01-28T06:11:50.688Z,100.00
2023-01-28T06:12:52.692Z,100.00
2023-01-28T06:14:26.962Z,100.00
2023-01-28T06:15:45.137Z,100.00
2023-01-28T06:16:57.490Z,100.00
2023-01-28T06:18:01.060Z,100.00
2023-01-28T06:19:05.715Z,100.00
2023-01-28T06:20:08.044Z,100.00
2023-01-28T06:21:11.255Z,100.00
2023-01-28T06:22:12.646Z,100.00
2023-01-28T06:23:13.921Z,100.00
2023-01-28T06:24:15.497Z,100.00
2023-01-28T06:25:16.956Z,100.00
2023-01-28T06:26:18.196Z,100.00
2023-01-28T06:27:20.726Z,100.00
2023-01-28T06:28:22.436Z,100.00
2023-01-28T06:29:23.750Z,100.00
2023-01-28T06:30:25.003Z,100.00
2023-01-28T06:31:26.422Z,100.00
2023-01-28T06:32:27.958Z,100.00
2023-01-28T06:33:29.199Z,100.00
2023-01-28T06:34:30.475Z,100.00
2023-01-28T06:35:31.681Z,100.00
2023-01-28T06:36:32.946Z,100.00
2023-01-28T06:37:34.171Z,100.00
2023-01-28T06:38:35.511Z,100.00
2023-01-28T06:39:36.714Z,100.00
2023-01-28T06:40:38.170Z,100.00
2023-01-28T06:41:39.400Z,100.00
2023-01-28T06:42:40.618Z,100.00
2023-01-28T06:43:41.994Z,100.00
2023-01-28T06:44:43.240Z,100.00
2023-01-28T06:45:44.491Z,100.00
2023-01-28T06:46:45.749Z,100.00
2023-01-28T06:47:47.018Z,100.00
2023-01-28T06:48:48.294Z,100.00
2023-01-28T06:49:49.483Z,100.00
2023-01-28T06:50:50.685Z,100.00
2023-01-28T06:51:51.995Z,100.00
2023-01-28T06:52:53.191Z,100.00
2023-01-28T06:53:54.385Z,100.00
2023-01-28T06:54:55.632Z,100.00
2023-01-28T06:55:56.831Z,100.00
2023-01-28T06:56:58.035Z,100.00
2023-01-28T06:57:59.227Z,100.00
2023-01-28T06:59:00.570Z,100.00
2023-01-28T07:00:01.846Z,100.00
2023-01-28T07:01:03.156Z,100.00
2023-01-28T07:02:04.465Z,100.00
2023-01-28T07:03:05.968Z,100.00
2023-01-28T07:04:07.227Z,100.00
2023-01-28T07:05:08.722Z,100.00
2023-01-28T07:06:10.036Z,100.00
2023-01-28T07:07:11.323Z,100.00
2023-01-28T07:08:12.582Z,100.00
2023-01-28T07:09:13.835Z,100.00
2023-01-28T07:10:15.357Z,100.00
2023-01-28T07:11:16.910Z,100.00
2023-01-28T07:12:18.091Z,100.00
2023-01-28T07:13:19.288Z,100.00
2023-01-28T07:14:20.546Z,100.00
2023-01-28T07:15:21.800Z,100.00
2023-01-28T07:16:23.028Z,100.00
2023-01-28T07:17:24.315Z,100.00
2023-01-28T07:18:25.647Z,100.00
2023-01-28T07:19:26.843Z,100.00
2023-01-28T07:20:28.069Z,100.00
2023-01-28T07:21:31.370Z,100.00
2023-01-28T07:22:32.575Z,100.00
2023-01-28T07:23:33.853Z,100.00
2023-01-28T07:24:35.102Z,100.00
2023-01-28T07:25:36.355Z,100.00
2023-01-28T07:26:37.619Z,100.00
2023-01-28T07:27:38.982Z,100.00
2023-01-28T07:28:40.256Z,100.00
2023-01-28T07:29:41.523Z,100.00
2023-01-28T07:30:42.754Z,100.00
2023-01-28T07:31:44.065Z,100.00
2023-01-28T07:32:45.727Z,100.00
2023-01-28T07:33:47.026Z,100.00
2023-01-28T07:34:48.271Z,100.00
2023-01-28T07:35:49.487Z,100.00
2023-01-28T07:36:50.755Z,100.00
2023-01-28T07:37:56.377Z,100.00
2023-01-28T07:38:57.627Z,100.00
2023-01-28T07:39:58.841Z,100.00
2023-01-28T07:41:00.116Z,100.00
2023-01-28T07:42:01.571Z,100.00
2023-01-28T07:43:13.187Z,100.00
2023-01-28T07:44:15.360Z,100.00
2023-01-28T07:45:16.656Z,100.00
2023-01-28T07:46:17.937Z,100.00
2023-01-28T07:47:19.271Z,100.00
2023-01-28T07:48:20.568Z,100.00
2023-01-28T07:49:21.836Z,100.00
2023-01-28T07:50:23.254Z,100.00
2023-01-28T07:51:24.492Z,100.00
2023-01-28T07:52:25.775Z,100.00
2023-01-28T07:53:27.367Z,100.00
2023-01-28T07:54:29.058Z,100.00
2023-01-28T07:55:31.455Z,100.00
2023-01-28T07:56:32.813Z,100.00
2023-01-28T07:57:34.091Z,100.00
2023-01-28T07:58:35.480Z,100.00
2023-01-28T07:59:36.728Z,100.00
2023-01-28T08:00:38.396Z,100.00
2023-01-28T08:01:42.265Z,100.00
2023-01-28T08:02:43.528Z,100.00
2023-01-28T08:03:44.779Z,100.00
2023-01-28T08:04:46.248Z,100.00
2023-01-28T08:05:48.467Z,100.00
2023-01-28T08:06:49.720Z,100.00
2023-01-28T08:07:51.065Z,100.00
2023-01-28T08:08:52.495Z,100.00
2023-01-28T08:09:53.678Z,100.00
2023-01-28T08:10:54.940Z,100.00
2023-01-28T08:11:56.214Z,100.00
2023-01-28T08:12:58.214Z,100.00
2023-01-28T08:13:59.429Z,100.00
2023-01-28T08:15:01.371Z,100.00
2023-01-28T08:16:03.369Z,100.00
2023-01-28T08:17:05.155Z,100.00
2023-01-28T08:18:07.985Z,100.00
2023-01-28T08:19:10.548Z,100.00
2023-01-28T08:20:12.132Z,100.00
2023-01-28T08:21:13.357Z,100.00
2023-01-28T08:22:14.625Z,100.00
2023-01-28T08:23:17.758Z,100.00
2023-01-28T08:24:19.081Z,100.00
2023-01-28T08:25:20.429Z,100.00
2023-01-28T08:26:21.962Z,100.00
2023-01-28T08:27:23.187Z,100.00
2023-01-28T08:28:24.600Z,100.00
2023-01-28T08:29:25.842Z,100.00
2023-01-28T08:30:27.126Z,100.00
2023-01-28T08:31:28.423Z,100.00
2023-01-28T08:32:30.092Z,100.00
2023-01-28T08:33:31.382Z,100.00
2023-01-28T08:34:32.578Z,100.00
2023-01-28T08:35:34.080Z,100.00
2023-01-28T08:36:35.521Z,100.00
2023-01-28T08:37:36.779Z,100.00
2023-01-28T08:38:38.037Z,100.00
2023-01-28T08:39:39.387Z,100.00
2023-01-28T08:40:40.706Z,100.00
2023-01-28T08:41:41.975Z,100.00
2023-01-28T08:42:50.062Z,100.00
2023-01-28T08:43:51.296Z,100.00
2023-01-28T08:44:52.551Z,100.00
2023-01-28T08:45:53.778Z,100.00
2023-01-28T08:46:54.968Z,100.00
2023-01-28T08:47:57.487Z,100.00
2023-01-28T08:48:58.684Z,100.00
2023-01-28T08:49:59.881Z,100.00
2023-01-28T08:51:01.143Z,100.00
2023-01-28T08:52:02.466Z,100.00
2023-01-28T08:53:07.967Z,100.00
2023-01-28T08:54:09.231Z,100.00
2023-01-28T08:55:11.264Z,100.00
2023-01-28T08:56:12.485Z,100.00
2023-01-28T08:57:13.704Z,100.00
2023-01-28T08:58:15.922Z,100.00
2023-01-28T08:59:17.436Z,100.00
2023-01-28T09:00:19.143Z,100.00
2023-01-28T09:01:20.475Z,100.00
2023-01-28T09:02:31.045Z,100.00
2023-01-28T09:03:33.624Z,100.00
2023-01-28T09:04:35.165Z,100.00
2023-01-28T09:05:37.374Z,100.00
2023-01-28T09:06:38.859Z,100.00
2023-01-28T09:07:40.076Z,100.00
2023-01-28T09:08:41.276Z,100.00
2023-01-28T09:09:42.467Z,100.00
2023-01-28T09:10:43.714Z,100.00
2023-01-28T09:11:44.989Z,100.00
2023-01-28T09:12:46.431Z,100.00
2023-01-28T09:13:47.634Z,100.00
2023-01-28T09:14:48.815Z,100.00
2023-01-28T09:15:50.263Z,100.00
2023-01-28T09:16:51.522Z,100.00
2023-01-28T09:17:58.859Z,100.00
2023-01-28T09:19:00.117Z,100.00
2023-01-28T09:20:01.355Z,100.00
2023-01-28T09:21:04.458Z,100.00
2023-01-28T09:22:05.882Z,100.00
2023-01-28T09:23:07.198Z,100.00
2023-01-28T09:24:10.739Z,100.00
2023-01-28T09:25:12.020Z,100.00
2023-01-28T09:26:13.551Z,100.00
2023-01-28T09:27:15.007Z,100.00
2023-01-28T09:28:16.304Z,100.00
2023-01-28T09:29:17.611Z,100.00
2023-01-28T09:30:19.029Z,100.00
2023-01-28T09:31:22.788Z,100.00
2023-01-28T09:32:24.044Z,100.00
2023-01-28T09:33:25.323Z,100.00
2023-01-28T09:34:26.559Z,100.00
2023-01-28T09:35:27.795Z,100.00
2023-01-28T09:36:28.992Z,100.00
2023-01-28T09:37:30.239Z,100.00
2023-01-28T09:38:31.858Z,100.00
2023-01-28T09:39:33.462Z,100.00
2023-01-28T09:40:34.700Z,100.00
2023-01-28T09:41:41.667Z,100.00
2023-01-28T09:42:55.315Z,100.00
2023-01-28T09:44:14.732Z,100.00
2023-01-28T09:45:18.993Z,100.00
2023-01-28T09:46:20.715Z,100.00
2023-01-28T09:47:25.009Z,100.00
2023-01-28T09:48:30.196Z,100.00
2023-01-28T09:49:36.907Z,100.00
2023-01-28T09:50:39.862Z,100.00
2023-01-28T09:51:42.865Z,100.00
2023-01-28T09:52:45.005Z,100.00
2023-01-28T09:53:50.064Z,100.00
2023-01-28T09:55:13.629Z,100.00
2023-01-28T09:56:31.151Z,100.00
2023-01-28T09:57:41.587Z,100.00
2023-01-28T09:58:42.828Z,100.00
2023-01-28T09:59:44.031Z,100.00
2023-01-28T10:00:58.660Z,100.00
2023-01-28T10:02:03.980Z,100.00
2023-01-28T10:03:05.261Z,100.00
2023-01-28T10:04:12.685Z,100.00
2023-01-28T10:05:29.015Z,100.00
2023-01-28T10:06:56.627Z,100.00
2023-01-28T10:08:14.628Z,100.00
2023-01-28T10:09:24.084Z,100.00
2023-01-28T10:10:28.248Z,100.00
2023-01-28T10:11:44.588Z,100.00
2023-01-28T10:12:51.883Z,100.00
2023-01-28T10:13:58.859Z,100.00
2023-01-28T10:15:12.429Z,100.00
2023-01-28T10:16:36.656Z,100.00
2023-01-28T10:17:43.307Z,100.00
2023-01-28T10:18:50.435Z,100.00
2023-01-28T10:20:08.296Z,100.00
2023-01-28T10:21:16.302Z,100.00
2023-01-28T10:22:25.102Z,100.00
2023-01-28T10:24:02.069Z,100.00
2023-01-28T10:25:07.355Z,100.00
2023-01-28T10:26:22.288Z,100.00
2023-01-28T10:27:24.702Z,100.00
2023-01-28T10:28:28.953Z,100.00
2023-01-28T10:29:33.144Z,100.00
2023-01-28T10:30:45.047Z,100.00
2023-01-28T10:32:06.564Z,100.00
2023-01-28T10:33:17.560Z,100.00
2023-01-28T10:34:20.197Z,100.00
2023-01-28T10:35:21.636Z,100.00
2023-01-28T10:36:23.423Z,100.00
2023-01-28T10:37:24.684Z,100.00
2023-01-28T10:38:26.856Z,100.00
2023-01-28T10:39:28.339Z,100.00
2023-01-28T10:40:29.540Z,99.81
2023-01-28T10:41:31.627Z,100.00
2023-01-28T10:42:34.589Z,100.00
2023-01-28T10:43:38.735Z,100.00
2023-01-28T10:44:42.301Z,100.00
2023-01-28T10:45:48.910Z,100.00
2023-01-28T10:46:51.143Z,100.00
2023-01-28T10:48:01.500Z,100.00
2023-01-28T10:49:22.541Z,100.00
2023-01-28T10:50:25.780Z,100.00
2023-01-28T10:51:35.103Z,100.00
2023-01-28T10:52:36.571Z,100.00
2023-01-28T10:53:47.387Z,100.00
2023-01-28T10:54:58.911Z,98.95
2023-01-28T10:56:00.912Z,98.92
2023-01-28T10:57:03.449Z,97.92
2023-01-28T10:58:05.005Z,97.95
2023-01-28T10:59:25.085Z,97.61
2023-01-28T11:00:27.858Z,97.52
2023-01-28T11:01:44.711Z,97.17
2023-01-28T11:02:49.423Z,97.81
2023-01-28T11:03:59.648Z,97.31
2023-01-28T11:05:03.655Z,97.93
2023-01-28T11:06:04.971Z,98.10
2023-01-28T11:07:17.619Z,98.20
2023-01-28T11:08:19.507Z,98.02
2023-01-28T11:09:21.715Z,97.95
2023-01-28T11:10:25.160Z,97.86
2023-01-28T11:11:29.392Z,97.66
2023-01-28T11:12:31.051Z,97.30
2023-01-28T11:13:32.275Z,97.04
2023-01-28T11:14:33.478Z,97.23
2023-01-28T11:15:41.039Z,97.54
2023-01-28T11:16:42.645Z,97.68
2023-01-28T11:17:48.198Z,98.46
2023-01-28T11:18:54.026Z,98.69
2023-01-28T11:19:56.824Z,98.94
2023-01-28T11:20:59.805Z,99.21
2023-01-28T11:22:01.843Z,98.89
2023-01-28T11:23:03.256Z,98.17
2023-01-28T11:24:06.572Z,97.82
2023-01-28T11:25:34.326Z,97.54
2023-01-28T11:26:40.150Z,97.57
2023-01-28T11:27:46.382Z,97.30
2023-01-28T11:28:47.797Z,97.37
2023-01-28T11:29:49.165Z,96.84
2023-01-28T11:30:52.038Z,97.14
2023-01-28T11:31:53.454Z,96.86
2023-01-28T11:32:59.107Z,96.17
2023-01-28T11:34:01.794Z,96.69
2023-01-28T11:35:05.252Z,96.97
2023-01-28T11:36:16.643Z,96.39
2023-01-28T11:37:20.311Z,96.86
2023-01-28T11:38:23.082Z,97.32
2023-01-28T11:39:25.327Z,97.47
2023-01-28T11:40:26.911Z,97.66
2023-01-28T11:41:30.441Z,98.25
2023-01-28T11:42:31.693Z,98.36
2023-01-28T11:43:32.965Z,98.65
2023-01-28T11:44:34.343Z,99.16
2023-01-28T11:45:40.102Z,99.71
2023-01-28T11:47:00.312Z,99.18
2023-01-28T11:48:14.113Z,99.25
2023-01-28T11:49:15.328Z,99.44
2023-01-28T11:50:36.814Z,99.58
2023-01-28T11:51:46.960Z,99.81
2023-01-28T11:53:06.004Z,99.80
2023-01-28T11:54:11.571Z,99.86
2023-01-28T11:55:21.973Z,100.00
2023-01-28T11:56:23.280Z,100.00
2023-01-28T11:57:31.395Z,100.00
2023-01-28T11:58:51.766Z,100.00
2023-01-28T12:00:12.369Z,100.00
2023-01-28T12:01:19.334Z,100.00
2023-01-28T12:02:43.963Z,100.00
2023-01-28T12:04:04.890Z,100.00
2023-01-28T12:05:06.212Z,100.00
2023-01-28T12:06:26.254Z,100.00
2023-01-28T12:07:46.108Z,100.00
2023-01-28T12:09:01.628Z,100.00
2023-01-28T12:10:23.289Z,100.00
2023-01-28T12:11:30.003Z,100.00
2023-01-28T12:12:31.285Z,100.00
2023-01-28T12:13:51.401Z,100.00
2023-01-28T12:15:11.226Z,100.00
2023-01-28T12:16:12.515Z,100.00
2023-01-28T12:17:28.063Z,100.00
2023-01-28T12:18:32.366Z,100.00
2023-01-28T12:19:53.563Z,100.00
2023-01-28T12:21:05.131Z,100.00
2023-01-28T12:22:13.407Z,100.00
2023-01-28T12:23:29.774Z,100.00
2023-01-28T12:24:39.168Z,100.00
2023-01-28T12:25:43.006Z,100.00
2023-01-28T12:27:03.101Z,100.00
2023-01-28T12:28:22.899Z,100.00
2023-01-28T12:29:33.134Z,100.00
2023-01-28T12:30:57.840Z,100.00
2023-01-28T12:32:13.644Z,100.00
2023-01-28T12:33:27.218Z,100.00
2023-01-28T12:34:47.206Z,100.00
2023-01-28T12:35:51.402Z,100.00
2023-01-28T12:37:00.356Z,100.00
2023-01-28T12:38:11.233Z,100.00
2023-01-28T12:39:23.286Z,100.00
2023-01-28T12:40:33.350Z,100.00
2023-01-28T12:41:38.978Z,100.00
2023-01-28T12:42:43.186Z,100.00
2023-01-28T12:43:54.058Z,100.00
2023-01-28T12:45:03.822Z,100.00
2023-01-28T12:46:10.614Z,100.00
2023-01-28T12:47:15.479Z,100.00
2023-01-28T12:48:32.674Z,100.00
2023-01-28T12:49:43.462Z,100.00
2023-01-28T12:50:47.515Z,100.00
2023-01-28T12:52:03.760Z,100.00
2023-01-28T12:53:13.976Z,100.00
2023-01-28T12:54:18.226Z,100.00
2023-01-28T12:55:19.448Z,100.00
2023-01-28T12:56:25.606Z,100.00
2023-01-28T12:57:28.845Z,100.00
2023-01-28T12:58:43.282Z,100.00
2023-01-28T12:59:47.506Z,100.00
2023-01-28T13:00:51.029Z,100.00
2023-01-28T13:02:15.635Z,100.00
2023-01-28T13:03:23.089Z,100.00
2023-01-28T13:04:43.144Z,100.00
2023-01-28T13:05:48.199Z,100.00
2023-01-28T13:06:52.880Z,100.00
2023-01-28T13:08:00.131Z,100.00
2023-01-28T13:09:03.339Z,100.00
2023-01-28T13:10:19.396Z,100.00
2023-01-28T13:11:20.895Z,100.00
2023-01-28T13:12:22.313Z,100.00
2023-01-28T13:13:37.198Z,100.00
2023-01-28T13:14:39.090Z,100.00
2023-01-28T13:15:41.805Z,100.00
2023-01-28T13:16:43.106Z,100.00
2023-01-28T13:17:54.614Z,100.00
2023-01-28T13:19:04.497Z,100.00
2023-01-28T13:20:17.059Z,100.00
2023-01-28T13:21:24.310Z,100.00
2023-01-28T13:22:25.532Z,100.00
2023-01-28T13:23:26.784Z,100.00
2023-01-28T13:24:31.626Z,100.00
2023-01-28T13:25:34.070Z,100.00
2023-01-28T13:26:54.177Z,100.00
2023-01-28T13:28:02.834Z,100.00
2023-01-28T13:29:08.966Z,100.00
2023-01-28T13:30:23.262Z,100.00
2023-01-28T13:31:24.518Z,100.00
2023-01-28T13:32:30.894Z,100.00
2023-01-28T13:33:36.784Z,100.00
2023-01-28T13:34:39.362Z,100.00
2023-01-28T13:35:40.896Z,100.00
2023-01-28T13:36:46.405Z,100.00
2023-01-28T13:37:48.140Z,100.00
2023-01-28T13:39:00.171Z,100.00
2023-01-28T13:40:04.542Z,100.00
2023-01-28T13:41:05.814Z,100.00
2023-01-28T13:42:24.505Z,100.00